Flight Track Log - Related Links

Times and Time Zones

All times are in EDT time to prevent confusion due to time zone crossing. See the WEW1540 flight status page for this flight to view local times or setup timezone preferences in your user account.


Time Position Orientation Groundspeed Altitude Reporting Facility
EDT Latitude Longitude Course Direction KTS MPH feet Rate Location/Type
Fri 07:12:25 PM 51.4500 -108.8500 90° East 150 173 9,000  Level Winnipeg Center
Fri 07:13:25 PM 51.4500 -108.7667 90° East 170 196 9,000  Level Winnipeg Center
Fri 07:14:25 PM 51.4333 -108.6833 108° East 180 207 9,000  Level Winnipeg Center
Fri 07:15:25 PM 51.4000 -108.6167 129° Southeast 180 207 9,000 250 Level Winnipeg Center
Fri 07:16:25 PM 51.4000 -108.5333 90° East 180 207 9,500 700 Climbing Winnipeg Center
Fri 07:17:25 PM 51.3833 -108.4833 118° Southeast 140 161 10,400 750 Climbing Winnipeg Center
Fri 07:18:25 PM 51.3500 -108.4500 148° Southeast 150 173 11,000 300 Climbing Winnipeg Center
Fri 07:19:25 PM 51.3333 -108.3500 105° East 150 173 11,000  Level Winnipeg Center
Fri 07:20:25 PM 51.3167 -108.2667 108° East 180 207 11,000  Level Winnipeg Center
Fri 07:21:25 PM 51.3167 -108.2167 90° East 190 219 11,000 150 Level Winnipeg Center
Fri 07:22:25 PM 51.2833 -108.1333 123° Southeast 190 219 11,300  Climbing Winnipeg Center
Fri 07:23:25 PM 51.2833 -108.0500 90° East 190 219 11,000 -150 Descending Winnipeg Center
Fri 07:24:25 PM 51.2667 -107.9667 108° East 190 219 11,000  Level Winnipeg Center
Fri 07:25:25 PM 51.2500 -107.8833 108° East 200 230 11,000  Level Winnipeg Center
Fri 07:26:25 PM 51.2000 -107.8333 148° Southeast 190 219 11,000  Level Winnipeg Center
Fri 07:27:25 PM 51.1833 -107.7500 108° East 190 219 11,000 -50 Level Winnipeg Center
Fri 07:28:25 PM 51.1833 -107.6667 90° East 190 219 10,900 -550 Descending Winnipeg Center
Fri 07:29:25 PM 51.1667 -107.5667 105° East 210 242 9,900 -950 Descending Winnipeg Center
Fri 07:30:25 PM 51.1500 -107.4833 108° East 220 253 9,000 -450 Descending Winnipeg Center
Fri 07:31:25 PM 51.1333 -107.4000 108° East 210 242 9,000  Level Winnipeg Center
Fri 07:32:25 PM 51.1167 -107.3000 105° East 190 219 9,000  Level Winnipeg Center
Fri 07:33:25 PM 51.1000 -107.2167 108° East 190 219 9,000  Level Winnipeg Center
Fri 07:34:25 PM 51.0667 -107.1333 122° Southeast 190 219 9,000  Level Winnipeg Center
Fri 07:35:25 PM 51.0833 -107.0500 72° East 190 219 9,000  Level Winnipeg Center
Fri 07:36:25 PM 51.0667 -106.9833 112° Southeast 190 219 9,000  Level Winnipeg Center
Fri 07:37:25 PM 51.0500 -106.8833 105° East 190 219 9,000  Level Winnipeg Center
Fri 07:38:25 PM 51.0333 -106.8000 108° East 190 219 9,000  Level Winnipeg Center
Fri 07:39:25 PM 51.0167 -106.7500 118° Southeast 190 219 9,000  Level Winnipeg Center
Fri 07:40:25 PM 51.0000 -106.6667 108° East 190 219 9,000  Level Winnipeg Center
Fri 07:41:25 PM 50.9833 -106.5833 108° East 190 219 9,000  Level Winnipeg Center
Fri 07:42:25 PM 50.9500 -106.5167 128° Southeast 180 207 9,000  Level Winnipeg Center
Fri 07:43:25 PM 50.9333 -106.4333 108° East 190 219 9,000  Level Winnipeg Center
Fri 07:44:25 PM 50.9167 -106.3833 118° Southeast 180 207 9,000  Level Winnipeg Center
Fri 07:45:25 PM 50.9000 -106.3000 108° East 180 207 9,000  Level Winnipeg Center
Fri 07:46:25 PM 50.8667 -106.2333 128° Southeast 190 219 9,000  Level Winnipeg Center
Fri 07:47:25 PM 50.8500 -106.1500 108° East 190 219 9,000  Level Winnipeg Center
Fri 07:48:25 PM 50.8333 -106.0667 108° East 190 219 9,000  Level Winnipeg Center
Fri 07:49:25 PM 50.8167 -105.9833 108° East 190 219 9,000  Level Winnipeg Center
Fri 07:50:25 PM 50.7833 -105.9000 122° Southeast 190 219 9,000  Level Winnipeg Center
Fri 07:51:25 PM 50.7833 -105.8500 90° East 190 219 9,000  Level Winnipeg Center
Fri 07:52:25 PM 50.7500 -105.7667 122° Southeast 180 207 9,000  Level Winnipeg Center
Fri 07:53:25 PM 50.7333 -105.6833 108° East 190 219 9,000 -250 Level Winnipeg Center
Fri 07:54:25 PM 50.7167 -105.6000 108° East 190 219 8,500 -500 Descending Winnipeg Center
Fri 07:55:25 PM 50.6833 -105.5333 128° Southeast 200 230 8,000 -500 Descending Winnipeg Center
Fri 07:56:25 PM 50.6667 -105.4500 107° East 200 230 7,500 -500 Descending Winnipeg Center
Fri 07:57:25 PM 50.6500 -105.3667 107° East 200 230 7,000 -550 Descending Winnipeg Center
Fri 07:58:25 PM 50.6167 -105.2833 122° Southeast 200 230 6,400 -744 Descending Winnipeg Center
Fri 07:59:26 PM 50.6000 -105.2000 107° East 200 230 5,500 -700 Descending Winnipeg Center
Fri 08:00:25 PM 50.5833 -105.1500 118° Southeast 200 230 5,000 -504 Descending Winnipeg Center
Fri 08:01:25 PM 50.5500 -105.0667 122° Southeast 190 219 4,500 -550 Descending Winnipeg Center
Fri 08:02:25 PM 50.5333 -104.9833 107° East 190 219 3,900 -600 Descending Winnipeg Center
Fri 08:03:25 PM 50.5167 -104.9167 111° Southeast 180 207 3,300 -500 Descending Winnipeg Center
Fri 08:04:25 PM 50.5000 -104.8333 107° East 170 196 2,900 -150 Descending Winnipeg Center
Fri 08:05:25 PM 50.4833 -104.7833 118° Southeast 140 161 3,000  Climbing Winnipeg Center
Fri 08:06:25 PM 50.4500 -104.7500 148° Southeast 120 138 2,900 -250 Descending Winnipeg Center
Fri 08:07:25 PM 50.4333 -104.7333 148° Southeast 120 138 2,500 -496 Descending Winnipeg Center
Fri 08:08:26 PM 50.4167 -104.7000 128° Southeast 100 115 1,900 -590 Descending Winnipeg Center

Login

Don't have an account? Register now (free) for customized features, flight alerts, and more!